Time;durP1;ratioP1;P1;durP2;ratioP2;P2;SDS_P1;SDS_P2;PMS_P1;PMS_P2;Temp;Humidity;BMP_temperature;BMP_pressure;BME280_temperature;BME280_humidity;BME280_pressure;Samples;Min_cycle;Max_cycle;Signal;HPM_P1;HPM_P2
2023/08/09 06:46:35;;;;;;;13.20;8.95;;;;;;;15.57;55.27;101105.53;5046334;28;20596;-84
2023/08/09 06:49:04;;;;;;;12.40;8.48;;;;;;;15.67;55.09;101115.44;5062206;28;20112;-83
2023/08/09 06:51:33;;;;;;;12.77;8.10;;;;;;;15.77;55.08;101116.19;5078967;28;20048;-83
2023/08/09 06:54:02;;;;;;;12.98;8.05;;;;;;;15.88;54.58;101118.69;5076359;28;20053;-84
2023/08/09 06:56:31;;;;;;;12.75;9.35;;;;;;;15.98;54.48;101117.72;5042404;28;20056;-84
2023/08/09 06:59:01;;;;;;;11.13;7.97;;;;;;;16.05;54.20;101116.91;5057655;28;20041;-85
2023/08/09 07:01:29;;;;;;;10.18;7.38;;;;;;;16.14;53.76;101128.84;5085417;22;20068;-74
2023/08/09 07:03:58;;;;;;;12.88;8.55;;;;;;;16.23;54.02;101131.53;5063456;28;20045;-71
2023/08/09 07:06:26;;;;;;;11.23;8.25;;;;;;;16.30;53.91;101139.16;5045688;28;20076;-73
2023/08/09 07:08:54;;;;;;;12.93;9.13;;;;;;;16.37;53.97;101137.47;5040927;28;20041;-74
2023/08/09 07:11:23;;;;;;;12.13;8.15;;;;;;;16.46;53.92;101147.53;5039426;28;21123;-74
2023/08/09 07:13:51;;;;;;;12.40;8.98;;;;;;;16.55;54.01;101143.75;5042321;28;20733;-73
2023/08/09 07:16:19;;;;;;;12.68;8.50;;;;;;;16.64;53.46;101151.06;5034093;28;20053;-73
2023/08/09 07:18:47;;;;;;;9.55;7.32;;;;;;;16.71;53.19;101151.25;5038942;28;20056;-75
2023/08/09 07:21:16;;;;;;;10.13;7.50;;;;;;;16.79;52.49;101148.50;5044225;28;20064;-74
2023/08/09 07:23:44;;;;;;;8.70;6.50;;;;;;;16.83;52.60;101155.41;5038082;28;20069;-74
2023/08/09 07:26:25;;;;;;;9.23;7.00;;;;;;;16.87;52.77;101156.81;5039568;28;20133;-73
2023/08/09 07:28:53;;;;;;;9.15;6.88;;;;;;;16.91;52.81;101158.19;5034757;28;20542;-74
2023/08/09 07:31:23;;;;;;;11.35;7.30;;;;;;;16.95;52.60;101159.63;5027787;28;20735;-74
2023/08/09 07:33:51;;;;;;;9.27;6.60;;;;;;;16.97;52.50;101166.75;5048060;28;20519;-75
2023/08/09 07:36:20;;;;;;;10.75;6.95;;;;;;;17.05;52.60;101165.03;5032055;28;21458;-75
2023/08/09 07:38:48;;;;;;;9.23;6.65;;;;;;;17.08;52.84;101176.59;5046965;28;20134;-75
2023/08/09 07:41:16;;;;;;;9.48;6.68;;;;;;;17.15;52.60;101182.34;5042420;28;20048;-75
2023/08/09 07:43:44;;;;;;;7.68;6.15;;;;;;;17.23;52.98;101186.00;5044167;28;20068;-76
2023/08/09 07:46:12;;;;;;;9.40;6.57;;;;;;;17.31;52.49;101180.47;5049058;28;20077;-76
2023/08/09 07:48:40;;;;;;;9.20;6.80;;;;;;;17.42;52.68;101179.25;5040957;28;20052;-76
2023/08/09 07:51:11;;;;;;;7.82;5.80;;;;;;;17.53;52.83;101181.69;5040500;28;20070;-74
2023/08/09 07:53:41;;;;;;;9.37;6.03;;;;;;;17.63;52.19;101187.06;5033097;28;20049;-76
2023/08/09 07:56:13;;;;;;;9.05;5.82;;;;;;;17.74;52.18;101179.31;5044171;28;20051;-76
2023/08/09 07:58:41;;;;;;;8.57;6.43;;;;;;;17.88;52.00;101196.28;5040121;28;20048;-75
2023/08/09 08:01:09;;;;;;;7.40;5.85;;;;;;;17.99;51.53;101194.00;5050613;28;20051;-76
2023/08/09 08:03:37;;;;;;;7.38;5.47;;;;;;;18.12;51.61;101191.56;5042031;28;20038;-76
2023/08/09 08:06:06;;;;;;;7.75;5.63;;;;;;;18.24;51.42;101199.50;5033690;28;20531;-76
2023/08/09 08:08:34;;;;;;;7.88;5.80;;;;;;;18.36;51.30;101195.31;5040924;28;20139;-76
2023/08/09 08:11:03;;;;;;;7.85;5.50;;;;;;;18.49;50.64;101202.06;5053203;28;20076;-76
2023/08/09 08:13:31;;;;;;;7.45;5.47;;;;;;;18.59;50.65;101201.84;5031685;28;20053;-76
2023/08/09 08:15:59;;;;;;;6.57;4.80;;;;;;;18.70;50.59;101206.16;5046074;28;20056;-76
2023/08/09 08:18:27;;;;;;;6.93;5.13;;;;;;;18.79;49.99;101203.19;5044839;28;20059;-76
2023/08/09 08:20:55;;;;;;;7.05;5.10;;;;;;;18.89;49.70;101202.94;5047093;28;20124;-76
2023/08/09 08:23:23;;;;;;;6.45;4.55;;;;;;;19.00;49.38;101204.44;5051247;28;20065;-76
2023/08/09 08:25:51;;;;;;;5.75;4.68;;;;;;;19.07;48.54;101203.53;5045783;28;20055;-76
2023/08/09 08:28:20;;;;;;;6.60;5.22;;;;;;;19.17;48.41;101206.97;5028585;28;20508;-76
2023/08/09 08:30:48;;;;;;;6.25;4.35;;;;;;;19.22;47.92;101204.53;5039382;28;20111;-76
2023/08/09 08:33:17;;;;;;;6.65;4.28;;;;;;;19.28;48.12;101205.72;5053723;28;20076;-76
2023/08/09 08:35:48;;;;;;;5.63;3.88;;;;;;;19.35;47.96;101206.72;5047733;28;20053;-75
2023/08/09 08:38:26;;;;;;;6.07;4.13;;;;;;;19.42;47.85;101206.84;5027072;28;20049;-76
2023/08/09 08:40:55;;;;;;;4.88;3.50;;;;;;;19.48;47.66;101206.97;5048445;28;20454;-76
2023/08/09 08:43:24;;;;;;;5.10;3.50;;;;;;;19.57;47.40;101210.53;5030471;28;20132;-75
2023/08/09 08:45:54;;;;;;;5.63;4.00;;;;;;;19.61;47.76;101200.81;5030418;28;20060;-76
2023/08/09 08:48:22;;;;;;;5.18;3.63;;;;;;;19.68;47.29;101207.34;5046785;28;20049;-76
2023/08/09 08:50:51;;;;;;;5.15;3.80;;;;;;;19.74;46.82;101212.13;5045689;28;20506;-76
2023/08/09 08:53:19;;;;;;;4.70;3.55;;;;;;;19.80;46.70;101213.31;5045190;28;20044;-61
2023/08/09 08:55:48;;;;;;;4.25;3.22;;;;;;;19.85;46.52;101219.19;5040316;28;20607;-60
2023/08/09 08:58:16;;;;;;;5.15;3.20;;;;;;;19.91;46.19;101212.91;5036313;28;20048;-61
2023/08/09 09:00:46;;;;;;;4.22;3.00;;;;;;;19.99;45.93;101219.25;5033756;28;20056;-61
2023/08/09 09:03:14;;;;;;;4.47;3.15;;;;;;;20.02;45.89;101218.88;5043797;28;20056;-60
2023/08/09 09:05:42;;;;;;;4.03;2.85;;;;;;;20.07;45.73;101234.97;5043536;28;20045;-59
2023/08/09 09:08:13;;;;;;;5.63;3.33;;;;;;;20.10;45.13;101220.72;5036710;28;20488;-60
2023/08/09 09:10:44;;;;;;;4.55;3.08;;;;;;;20.18;44.61;101222.56;5040898;28;20119;-59
2023/08/09 09:13:25;;;;;;;5.05;3.10;;;;;;;20.20;43.92;101237.13;5033474;28;20526;-60
2023/08/09 09:15:56;;;;;;;4.95;3.03;;;;;;;20.24;44.55;101238.47;5030094;28;20061;-61
2023/08/09 09:18:25;;;;;;;4.32;2.67;;;;;;;20.24;45.14;101239.34;5038694;28;20103;-60
2023/08/09 09:20:54;;;;;;;4.30;2.97;;;;;;;20.30;44.41;101234.94;5038322;28;20041;-61
2023/08/09 09:23:27;;;;;;;3.75;2.70;;;;;;;20.35;44.28;101238.88;5045502;28;20071;-59
2023/08/09 09:26:07;;;;;;;4.53;2.67;;;;;;;20.38;43.07;101237.63;5044091;28;20132;-60
2023/08/09 09:28:41;;;;;;;4.18;2.55;;;;;;;20.42;43.48;101235.34;5033360;28;20564;-56
2023/08/09 09:31:12;;;;;;;4.53;2.90;;;;;;;20.45;43.54;101234.97;5043252;28;20076;-60
2023/08/09 09:33:44;;;;;;;4.22;2.47;;;;;;;20.48;43.51;101237.34;5041114;28;20108;-61
2023/08/09 09:36:12;;;;;;;;;;;;;;;20.20;44.16;101243.53;5044890;28;20049;-59
2023/08/09 09:38:41;;;;;;;3.88;2.08;;;;;;;20.51;43.71;101245.31;5039975;28;19921;-60
2023/08/09 09:41:10;;;;;;;4.25;2.53;;;;;;;20.58;42.88;101244.38;5023359;28;20045;-61
2023/08/09 09:43:47;;;;;;;3.45;2.10;;;;;;;20.65;41.86;101250.06;5041451;28;20047;-60
2023/08/09 09:46:21;;;;;;;4.05;2.33;;;;;;;20.68;41.43;101258.91;5042382;28;20049;-62
2023/08/09 09:49:05;;;;;;;3.60;1.90;;;;;;;20.69;42.80;101256.97;5045943;28;20508;-61
2023/08/09 09:51:35;;;;;;;3.90;2.17;;;;;;;20.74;42.56;101262.81;5042725;28;20061;-62
2023/08/09 09:54:04;;;;;;;3.00;1.95;;;;;;;20.77;42.71;101257.75;5036963;28;20052;-62
2023/08/09 09:56:32;;;;;;;3.17;1.98;;;;;;;20.83;42.64;101256.09;5040544;28;20518;-62
2023/08/09 09:59:02;;;;;;;3.72;1.92;;;;;;;20.89;42.15;101258.13;5050006;28;20056;-62
2023/08/09 10:01:35;;;;;;;3.00;1.90;;;;;;;20.95;41.61;101257.34;5045134;28;20044;-62
2023/08/09 10:04:07;;;;;;;2.38;1.50;;;;;;;21.01;41.49;101259.38;5051326;28;20056;-62
2023/08/09 10:06:39;;;;;;;2.97;1.80;;;;;;;21.04;41.77;101261.75;5047145;28;20045;-60
2023/08/09 10:09:09;;;;;;;3.08;1.95;;;;;;;21.06;41.21;101273.56;5045159;28;20403;-62
2023/08/09 10:11:39;;;;;;;2.35;1.55;;;;;;;21.12;41.04;101272.75;5043992;28;20064;-61
2023/08/09 10:14:09;;;;;;;2.17;1.40;;;;;;;21.17;41.09;101271.34;5044798;28;20043;-61
2023/08/09 10:16:39;;;;;;;2.25;1.40;;;;;;;21.20;40.34;101282.94;5039632;28;20037;-61
2023/08/09 10:19:11;;;;;;;2.00;1.38;;;;;;;21.23;40.31;101285.34;5044511;28;20123;-62
2023/08/09 10:21:41;;;;;;;2.05;1.23;;;;;;;21.23;40.54;101282.56;5046514;28;20056;-61
2023/08/09 10:24:12;;;;;;;2.42;1.33;;;;;;;21.28;40.25;101280.06;5046336;28;20140;-62
2023/08/09 10:26:41;;;;;;;1.83;1.27;;;;;;;21.31;39.98;101281.63;5045672;28;20048;-62
2023/08/09 10:29:11;;;;;;;2.03;1.30;;;;;;;21.35;39.90;101282.97;5044743;28;20049;-61
2023/08/09 10:31:53;;;;;;;3.03;1.35;;;;;;;21.39;38.87;101281.50;5043978;28;20049;-62
2023/08/09 10:34:22;;;;;;;3.53;1.23;;;;;;;21.39;39.93;101271.22;5050362;28;20120;-62
2023/08/09 10:36:54;;;;;;;1.90;1.35;;;;;;;21.43;39.88;101280.06;5044525;28;20048;-62
2023/08/09 10:39:24;;;;;;;2.33;1.20;;;;;;;21.43;39.86;101271.72;5043135;28;20048;-62
2023/08/09 10:41:57;;;;;;;1.73;1.25;;;;;;;21.48;38.65;101274.75;5039514;28;20431;-62
2023/08/09 10:44:38;;;;;;;2.97;1.50;;;;;;;21.49;37.94;101280.13;5042540;28;20052;-62
2023/08/09 10:47:10;;;;;;;2.33;1.30;;;;;;;21.50;38.16;101281.88;5041747;28;20488;-63
2023/08/09 10:50:08;;;;;;;3.15;1.33;;;;;;;21.45;37.95;101275.13;5039555;28;20615;-62
2023/08/09 10:52:38;;;;;;;1.77;1.00;;;;;;;21.47;38.13;101281.38;5040419;28;20033;-62
2023/08/09 10:55:25;;;;;;;2.67;1.30;;;;;;;21.48;37.33;101283.13;5043541;28;20052;-63
2023/08/09 10:57:55;;;;;;;2.00;1.10;;;;;;;21.46;37.92;101285.22;5024430;28;20896;-62
2023/08/09 11:00:25;;;;;;;3.00;1.40;;;;;;;21.47;37.67;101289.75;5043011;28;20159;-60
2023/08/09 11:02:55;;;;;;;2.05;1.35;;;;;;;21.45;37.62;101287.16;5042410;28;20041;-60
2023/08/09 11:05:27;;;;;;;2.00;1.13;;;;;;;21.41;37.67;101280.25;5046576;28;20053;-62
2023/08/09 11:07:57;;;;;;;1.73;1.13;;;;;;;21.41;37.41;101287.75;5045253;28;20037;-60
2023/08/09 11:10:33;;;;;;;1.55;1.10;;;;;;;21.40;36.39;101286.00;5045195;28;20064;-62
2023/08/09 11:13:07;;;;;;;3.28;1.52;;;;;;;21.37;36.58;101283.59;5015704;28;20099;-61
2023/08/09 11:15:36;;;;;;;2.70;1.30;;;;;;;21.32;37.59;101291.69;5034427;28;20040;-62
2023/08/09 11:18:06;;;;;;;2.00;1.35;;;;;;;21.32;37.26;101295.34;5044700;28;20212;-62
2023/08/09 11:20:34;;;;;;;2.53;1.33;;;;;;;21.29;37.61;101289.28;5044150;28;20040;-62
2023/08/09 11:23:03;;;;;;;1.90;1.20;;;;;;;21.26;37.35;101292.47;5047542;28;20412;-59
2023/08/09 11:25:33;;;;;;;2.83;1.50;;;;;;;21.25;37.54;101288.78;5034800;28;20475;-62
2023/08/09 11:28:03;;;;;;;2.63;1.20;;;;;;;21.24;36.63;101294.56;5039585;28;20639;-62
2023/08/09 11:30:32;;;;;;;1.88;1.05;;;;;;;21.22;37.21;101297.53;5042433;28;20047;-62
2023/08/09 11:33:03;;;;;;;2.35;1.45;;;;;;;21.23;37.19;101298.38;5038955;28;20374;-63
2023/08/09 11:35:39;;;;;;;2.60;1.17;;;;;;;21.25;36.83;101299.06;5045711;28;20052;-62
2023/08/09 11:38:09;;;;;;;2.22;1.08;;;;;;;21.24;37.01;101297.34;5037404;28;20464;-62
2023/08/09 11:40:43;;;;;;;1.63;1.00;;;;;;;21.24;36.39;101300.13;5042118;28;20103;-63
2023/08/09 11:43:12;;;;;;;1.73;1.10;;;;;;;21.25;36.95;101294.38;5044549;28;20048;-62
2023/08/09 11:45:49;;;;;;;2.17;1.20;;;;;;;21.29;36.15;101300.41;5044430;28;20045;-62
2023/08/09 11:48:26;;;;;;;2.08;1.08;;;;;;;21.28;35.82;101291.22;5040289;28;20036;-62
2023/08/09 11:51:13;;;;;;;3.00;1.20;;;;;;;21.25;36.01;101305.50;5030610;28;20130;-63
2023/08/09 11:53:42;;;;;;;2.70;1.15;;;;;;;21.26;36.54;101311.97;5027719;28;20068;-61
2023/08/09 11:56:13;;;;;;;1.80;1.10;;;;;;;21.26;35.86;101306.41;5040200;28;20057;-62
2023/08/09 11:58:45;;;;;;;2.60;1.00;;;;;;;21.26;35.98;101317.53;5042778;28;20099;-62
2023/08/09 12:01:14;;;;;;;2.25;1.20;;;;;;;21.22;36.19;101319.78;5044580;28;20046;-64
2023/08/09 12:03:42;;;;;;;2.30;1.10;;;;;;;21.21;36.13;101308.84;5037353;28;20658;-65
2023/08/09 12:06:12;;;;;;;2.30;1.17;;;;;;;21.23;35.84;101312.31;5032941;28;20053;-64
2023/08/09 12:08:40;;;;;;;3.53;1.17;;;;;;;21.20;35.87;101316.34;5042722;28;20053;-64
2023/08/09 12:11:09;;;;;;;2.15;1.30;;;;;;;21.21;35.60;101317.19;5039990;28;20053;-64
2023/08/09 12:13:37;;;;;;;3.63;1.20;;;;;;;21.18;35.76;101312.91;5035588;28;20583;-65
2023/08/09 12:16:06;;;;;;;2.10;1.20;;;;;;;21.19;35.70;101319.34;5039578;28;20040;-64
2023/08/09 12:18:36;;;;;;;2.40;1.33;;;;;;;21.17;35.83;101316.75;5038594;28;20044;-64
2023/08/09 12:21:07;;;;;;;1.60;1.10;;;;;;;21.18;36.08;101320.38;5035787;28;20044;-64
2023/08/09 12:23:37;;;;;;;2.13;1.10;;;;;;;21.20;35.93;101326.59;5034814;28;20051;-64
2023/08/09 12:26:07;;;;;;;1.95;1.20;;;;;;;21.17;35.84;101322.31;5037291;28;20119;-65
2023/08/09 12:28:35;;;;;;;2.35;1.30;;;;;;;21.18;35.59;101324.03;5040510;28;20045;-64
2023/08/09 12:31:05;;;;;;;2.35;1.40;;;;;;;21.19;35.46;101322.94;5039015;28;20090;-64
2023/08/09 12:33:33;;;;;;;3.80;1.50;;;;;;;21.20;35.66;101321.03;5041336;28;20076;-64
2023/08/09 12:36:01;;;;;;;2.50;1.40;;;;;;;21.20;35.81;101318.25;5045268;28;20156;-64
2023/08/09 12:38:28;;;;;;;2.03;1.20;;;;;;;21.22;35.65;101321.72;5040348;28;20983;-65
2023/08/09 12:40:58;;;;;;;2.45;1.30;;;;;;;21.25;35.72;101326.91;5031546;28;20050;-64
2023/08/09 12:43:26;;;;;;;2.78;1.25;;;;;;;21.24;35.69;101326.03;5041626;28;20038;-62
2023/08/09 12:45:55;;;;;;;2.53;1.13;;;;;;;21.25;36.16;101321.34;5043990;28;20538;-64
2023/08/09 12:48:23;;;;;;;3.88;1.60;;;;;;;21.28;36.09;101332.97;5033887;28;20047;-63
2023/08/09 12:50:50;;;;;;;2.22;1.30;;;;;;;21.30;35.78;101327.22;5041807;28;20147;-63
2023/08/09 12:53:18;;;;;;;2.42;1.27;;;;;;;21.30;35.93;101332.78;5045396;28;20041;-63
2023/08/09 12:55:47;;;;;;;2.30;1.17;;;;;;;21.34;35.61;101331.34;5044647;28;20412;-63
2023/08/09 12:58:16;;;;;;;3.00;1.45;;;;;;;21.37;35.52;101337.38;5025034;28;20053;-63
2023/08/09 13:00:45;;;;;;;3.00;1.23;;;;;;;21.38;35.64;101327.97;5043215;28;20045;-63
2023/08/09 13:03:13;;;;;;;1.85;1.15;;;;;;;21.42;35.64;101334.88;5040842;28;20095;-63
2023/08/09 13:05:43;;;;;;;1.45;1.10;;;;;;;21.45;35.60;101333.63;5038860;28;20088;-62
2023/08/09 13:08:11;;;;;;;1.88;1.02;;;;;;;21.48;35.62;101328.53;5033662;28;20597;-63
2023/08/09 13:10:40;;;;;;;2.80;1.45;;;;;;;21.50;35.53;101326.44;5043513;28;21164;-63
2023/08/09 13:13:08;;;;;;;2.13;1.30;;;;;;;21.54;35.60;101326.88;5039284;28;20041;-63
2023/08/09 13:15:37;;;;;;;2.13;1.30;;;;;;;21.59;35.64;101326.31;5041860;28;20119;-63
2023/08/09 13:18:06;;;;;;;2.65;1.20;;;;;;;21.61;35.40;101321.38;5044021;28;20503;-63
2023/08/09 13:20:34;;;;;;;2.33;1.50;;;;;;;21.63;34.95;101317.34;5044768;28;20589;-63
2023/08/09 13:23:02;;;;;;;2.42;1.50;;;;;;;21.65;35.13;101312.47;5038114;28;20045;-63
2023/08/09 13:25:30;;;;;;;2.83;1.27;;;;;;;21.69;35.10;101321.25;5031806;28;20504;-63
2023/08/09 13:27:58;;;;;;;2.08;1.20;;;;;;;21.70;34.65;101314.63;5037379;28;20041;-63
2023/08/09 13:30:26;;;;;;;2.28;1.20;;;;;;;21.73;34.66;101303.13;5049477;28;20063;-63
2023/08/09 13:32:56;;;;;;;1.75;1.10;;;;;;;21.78;34.51;101308.94;5046560;28;20537;-63
2023/08/09 13:35:25;;;;;;;2.90;1.60;;;;;;;21.77;34.64;101310.88;5045522;28;20157;-63
2023/08/09 13:37:53;;;;;;;2.45;1.30;;;;;;;21.80;34.66;101309.63;5042107;28;20048;-61
2023/08/09 13:40:21;;;;;;;3.13;1.45;;;;;;;21.83;34.53;101312.03;5044990;28;20048;-63
2023/08/09 13:42:49;;;;;;;1.77;1.23;;;;;;;21.84;34.56;101303.47;5036166;28;20092;-63
2023/08/09 13:45:17;;;;;;;3.28;1.50;;;;;;;21.88;34.64;101310.34;5037632;28;20041;-63
2023/08/09 13:47:45;;;;;;;2.60;1.30;;;;;;;21.92;34.40;101301.66;5045278;28;20129;-63
2023/08/09 13:50:14;;;;;;;3.72;1.40;;;;;;;21.97;34.39;101313.06;5045436;28;20052;-63
2023/08/09 13:52:42;;;;;;;2.50;1.35;;;;;;;21.98;34.32;101310.06;5041763;28;20045;-68
2023/08/09 13:55:11;;;;;;;1.88;1.10;;;;;;;22.01;34.43;101300.47;5045511;28;20044;-68
2023/08/09 13:57:39;;;;;;;2.47;1.45;;;;;;;22.04;34.68;101314.84;5039421;28;20473;-68
2023/08/09 14:00:09;;;;;;;2.03;1.33;;;;;;;22.09;34.33;101311.47;5044767;28;20452;-68
2023/08/09 14:02:38;;;;;;;2.20;1.40;;;;;;;22.08;34.12;101318.09;5042230;28;20170;-68
2023/08/09 14:05:07;;;;;;;1.67;1.27;;;;;;;22.12;33.91;101306.34;5028086;28;20408;-68
2023/08/09 14:07:36;;;;;;;2.42;1.30;;;;;;;22.15;33.96;101308.75;5040194;28;20047;-68
2023/08/09 14:10:05;;;;;;;2.50;1.50;;;;;;;22.16;33.65;101304.91;5045724;28;20584;-68
2023/08/09 14:12:33;;;;;;;2.35;1.40;;;;;;;22.17;33.77;101292.69;5040063;28;20116;-68
2023/08/09 14:15:04;;;;;;;2.25;1.23;;;;;;;22.19;33.72;101309.19;5038630;28;20369;-68
2023/08/09 14:17:32;;;;;;;2.50;1.25;;;;;;;22.22;33.47;101314.38;5033342;28;20060;-67
2023/08/09 14:20:00;;;;;;;3.55;1.60;;;;;;;22.24;33.62;101310.34;5042915;28;20055;-68
2023/08/09 14:22:28;;;;;;;2.95;1.40;;;;;;;22.26;33.62;101304.56;5041121;28;20394;-67
2023/08/09 14:24:57;;;;;;;1.88;1.40;;;;;;;22.30;32.85;101311.44;5035247;28;20504;-68
2023/08/09 14:27:25;;;;;;;2.17;1.40;;;;;;;22.29;32.86;101304.16;5034312;28;20654;-68
2023/08/09 14:29:53;;;;;;;2.50;1.38;;;;;;;22.31;32.79;101306.72;5043079;28;20055;-67
2023/08/09 14:32:24;;;;;;;2.03;1.20;;;;;;;22.30;32.91;101305.88;5044435;28;20045;-67
2023/08/09 14:34:52;;;;;;;2.67;1.45;;;;;;;22.30;32.91;101311.44;5035467;28;20458;-67
2023/08/09 14:37:20;;;;;;;2.53;1.50;;;;;;;22.29;33.08;101309.72;5027407;28;20045;-68
2023/08/09 14:39:48;;;;;;;2.90;1.30;;;;;;;22.28;33.10;101299.63;5045436;28;20056;-68
2023/08/09 14:42:17;;;;;;;2.22;1.15;;;;;;;22.31;32.58;101310.38;5045029;28;20748;-68
2023/08/09 14:44:47;;;;;;;2.35;1.33;;;;;;;22.28;32.33;101316.34;5045124;28;20041;-68
2023/08/09 14:47:14;;;;;;;1.30;1.10;;;;;;;22.27;32.53;101315.50;5043644;28;20764;-68
2023/08/09 14:49:42;;;;;;;2.55;1.38;;;;;;;22.27;32.43;101321.06;5044671;28;20175;-68
2023/08/09 14:52:10;;;;;;;2.00;1.40;;;;;;;22.27;32.31;101323.00;5040695;28;20511;-68
2023/08/09 14:54:39;;;;;;;2.28;1.50;;;;;;;22.24;32.24;101310.34;5045004;28;20047;-68
2023/08/09 14:57:07;;;;;;;2.05;1.30;;;;;;;22.23;32.04;101322.53;5045950;28;20095;-68
2023/08/09 14:59:37;;;;;;;2.58;1.35;;;;;;;22.25;32.03;101322.34;5045135;28;20036;-68
2023/08/09 15:02:05;;;;;;;1.88;1.23;;;;;;;22.22;32.00;101315.25;5042991;28;20585;-67
2023/08/09 15:04:33;;;;;;;2.60;1.40;;;;;;;22.22;31.96;101322.75;5044969;28;20040;-67
2023/08/09 15:07:01;;;;;;;2.30;1.48;;;;;;;22.21;31.50;101329.38;5039840;28;20407;-68
2023/08/09 15:09:29;;;;;;;2.97;1.35;;;;;;;22.20;31.63;101328.50;5036625;28;20527;-68
2023/08/09 15:11:58;;;;;;;2.35;1.60;;;;;;;22.20;31.59;101341.59;5038300;28;20079;-68
2023/08/09 15:14:26;;;;;;;2.40;1.38;;;;;;;22.19;31.69;101331.50;5041648;28;20136;-61
2023/08/09 15:16:55;;;;;;;3.17;1.63;;;;;;;22.21;31.27;101333.03;5029747;28;20046;-68
2023/08/09 15:19:30;;;;;;;2.55;1.55;;;;;;;22.19;31.64;101328.69;5032151;28;20041;-67
2023/08/09 15:21:57;;;;;;;2.05;1.50;;;;;;;22.19;31.88;101335.16;5028266;28;20045;-66
2023/08/09 15:24:26;;;;;;;2.15;1.50;;;;;;;22.18;32.03;101338.13;5038292;28;20123;-68
2023/08/09 15:26:54;;;;;;;2.15;1.30;;;;;;;22.17;31.68;101333.63;5017203;28;20042;-67
2023/08/09 15:29:22;;;;;;;2.60;1.55;;;;;;;22.16;31.74;101332.78;5043550;28;20480;-68
2023/08/09 15:31:50;;;;;;;2.20;1.50;;;;;;;22.15;31.94;101331.03;5038982;28;20067;-68
2023/08/09 15:34:19;;;;;;;2.83;1.50;;;;;;;22.16;31.80;101332.78;5038012;28;20207;-68
2023/08/09 15:36:47;;;;;;;2.70;1.70;;;;;;;22.14;32.21;101329.31;5039866;28;20049;-68
2023/08/09 15:39:15;;;;;;;2.00;1.30;;;;;;;22.13;32.06;101337.88;5044051;28;20580;-68
2023/08/09 15:41:43;;;;;;;2.70;1.50;;;;;;;22.13;32.03;101321.16;5030713;28;20041;-68
2023/08/09 15:44:12;;;;;;;2.85;1.60;;;;;;;22.13;31.84;101330.38;5039628;28;20062;-68
2023/08/09 15:46:40;;;;;;;2.70;1.60;;;;;;;22.11;31.72;101324.13;5046754;28;20415;-68
2023/08/09 15:49:08;;;;;;;2.55;1.55;;;;;;;22.11;31.75;101318.56;5047272;28;20391;-67
2023/08/09 15:51:38;;;;;;;2.95;1.60;;;;;;;22.14;31.49;101322.88;5040777;28;20081;-67
2023/08/09 15:54:06;;;;;;;2.22;1.35;;;;;;;22.10;31.89;101325.19;5044082;28;20492;-68
2023/08/09 15:56:34;;;;;;;3.30;1.52;;;;;;;22.10;32.06;101329.91;5043300;28;20128;-67
2023/08/09 15:59:02;;;;;;;3.25;1.80;;;;;;;22.10;32.02;101330.75;5047406;28;20064;-71
2023/08/09 16:01:31;;;;;;;2.13;1.50;;;;;;;22.10;32.11;101338.25;5029561;28;20178;-68
2023/08/09 16:03:59;;;;;;;3.20;1.92;;;;;;;22.09;32.06;101334.63;5054207;28;20051;-67
2023/08/09 16:06:27;;;;;;;2.55;1.70;;;;;;;22.08;31.61;101332.91;5044596;28;20072;-67
2023/08/09 16:08:57;;;;;;;3.28;1.60;;;;;;;22.09;31.54;101331.84;5036539;28;20049;-67
2023/08/09 16:11:25;;;;;;;3.00;1.70;;;;;;;22.07;31.61;101338.69;5043056;28;20051;-68
2023/08/09 16:13:53;;;;;;;2.63;1.75;;;;;;;22.06;31.28;101328.59;5041984;28;20041;-67
2023/08/09 16:16:24;;;;;;;3.50;1.70;;;;;;;22.06;31.26;101336.94;5048482;28;20051;-68
2023/08/09 16:19:01;;;;;;;2.67;1.80;;;;;;;22.04;31.52;101339.94;5024552;28;20159;-68
2023/08/09 16:21:29;;;;;;;3.03;1.73;;;;;;;22.04;31.59;101341.84;5035603;28;20065;-67
2023/08/09 16:24:00;;;;;;;3.20;1.90;;;;;;;22.05;31.55;101347.22;5041260;28;20469;-67
2023/08/09 16:26:29;;;;;;;2.80;1.80;;;;;;;22.04;31.51;101345.50;5046755;28;20079;-67
2023/08/09 16:28:58;;;;;;;3.22;1.83;;;;;;;22.02;31.82;101336.47;5028978;28;20139;-67
2023/08/09 16:31:26;;;;;;;3.33;1.83;;;;;;;22.02;31.72;101342.03;5044764;28;20047;-68
2023/08/09 16:33:54;;;;;;;3.42;2.05;;;;;;;22.02;31.82;101343.97;5046732;28;20465;-67
2023/08/09 16:36:21;;;;;;;3.05;1.90;;;;;;;22.02;31.85;101352.31;5047751;28;20587;-67
2023/08/09 16:38:49;;;;;;;2.83;1.73;;;;;;;22.02;31.65;101349.53;5037531;28;20499;-67
2023/08/09 16:41:19;;;;;;;3.72;2.10;;;;;;;22.02;31.55;101343.97;5051779;28;20964;-67
2023/08/09 16:43:47;;;;;;;10.35;5.07;;;;;;;22.00;32.16;101343.31;5046747;28;20051;-68
2023/08/09 16:46:15;;;;;;;17.17;7.22;;;;;;;21.99;32.32;101353.59;5036613;28;20386;-67
2023/08/09 16:48:43;;;;;;;27.50;12.52;;;;;;;21.98;32.39;101348.22;5046485;28;20052;-68
2023/08/09 16:51:11;;;;;;;24.60;12.07;;;;;;;21.97;32.90;101350.16;5045380;28;20136;-67
2023/08/09 16:53:40;;;;;;;21.95;11.50;;;;;;;21.96;33.06;101354.00;5027917;28;20222;-67
2023/08/09 16:56:08;;;;;;;15.75;9.32;;;;;;;21.95;32.95;101351.41;5038680;28;20049;-67
2023/08/09 16:58:37;;;;;;;17.00;8.30;;;;;;;21.95;33.02;101355.03;5030085;28;20037;-67
2023/08/09 17:01:05;;;;;;;10.73;6.45;;;;;;;21.91;33.18;101347.28;5051401;28;20073;-67
2023/08/09 17:03:34;;;;;;;9.82;5.80;;;;;;;21.89;33.17;101353.88;5050895;28;20516;-67
2023/08/09 17:06:02;;;;;;;9.68;5.47;;;;;;;21.88;33.38;101354.06;5039934;28;20037;-67
2023/08/09 17:08:30;;;;;;;8.05;4.43;;;;;;;21.86;33.54;101356.19;5041243;28;20083;-67
2023/08/09 17:11:01;;;;;;;5.00;3.60;;;;;;;21.85;33.15;101360.03;5041746;28;20079;-67
2023/08/09 17:13:29;;;;;;;5.47;3.30;;;;;;;21.82;33.49;101355.75;5042205;28;20040;-67
2023/08/09 17:15:58;;;;;;;5.63;3.30;;;;;;;21.83;33.47;101360.25;5047058;28;20085;-67
2023/08/09 17:18:26;;;;;;;4.40;2.58;;;;;;;21.81;33.46;101358.72;5033770;28;20129;-68
2023/08/09 17:20:54;;;;;;;3.95;2.17;;;;;;;21.79;33.52;101360.81;5045456;28;20049;-67
2023/08/09 17:23:22;;;;;;;3.53;2.10;;;;;;;21.78;33.30;101359.09;5047013;28;20051;-67
2023/08/09 17:25:51;;;;;;;3.08;1.95;;;;;;;21.78;33.53;101359.09;5048230;28;20053;-63
2023/08/09 17:28:20;;;;;;;3.60;2.10;;;;;;;21.76;33.62;101359.31;5025782;28;20118;-63
2023/08/09 17:30:48;;;;;;;2.83;1.83;;;;;;;21.75;33.54;101362.28;5019796;28;20543;-63
2023/08/09 17:33:17;;;;;;;3.38;1.70;;;;;;;21.76;33.41;101362.09;5020678;28;20064;-63
2023/08/09 17:35:45;;;;;;;2.88;1.70;;;;;;;21.73;33.42;101361.63;5046043;28;20729;-63
2023/08/09 17:38:13;;;;;;;2.92;1.90;;;;;;;21.71;33.79;101367.38;5038432;28;20404;-63
2023/08/09 17:40:42;;;;;;;3.88;1.60;;;;;;;21.70;33.75;101370.34;5039926;28;20068;-62
2023/08/09 17:43:10;;;;;;;2.38;1.55;;;;;;;21.67;33.86;101371.63;5039956;28;20041;-62
2023/08/09 17:45:41;;;;;;;3.47;1.70;;;;;;;21.67;33.59;101373.56;5044074;28;20063;-67
2023/08/09 17:48:09;;;;;;;3.88;1.65;;;;;;;21.65;33.83;101389.59;5042897;28;20128;-67
2023/08/09 17:50:38;;;;;;;2.90;1.60;;;;;;;21.65;33.67;101387.66;5043401;28;20123;-67
2023/08/09 17:53:07;;;;;;;4.00;1.40;;;;;;;21.62;33.76;101395.53;5042649;28;20061;-67
2023/08/09 17:55:35;;;;;;;2.17;1.40;;;;;;;21.60;33.60;101392.09;5041147;28;20131;-67
2023/08/09 17:58:03;;;;;;;4.10;1.65;;;;;;;21.59;33.66;101395.94;5039011;28;20067;-67
2023/08/09 18:00:31;;;;;;;3.83;1.50;;;;;;;21.56;33.64;101397.19;5033286;28;20099;-67
2023/08/09 18:02:59;;;;;;;3.28;1.52;;;;;;;21.55;33.71;101401.03;5042762;28;20067;-67
2023/08/09 18:05:27;;;;;;;2.90;1.50;;;;;;;21.53;34.02;101401.22;5041095;28;20060;-67
2023/08/09 18:07:57;;;;;;;2.50;1.40;;;;;;;21.53;33.56;101405.91;5023499;28;20086;-68
2023/08/09 18:10:25;;;;;;;4.65;1.60;;;;;;;21.50;33.55;101406.31;5041988;28;20059;-67
2023/08/09 18:12:53;;;;;;;2.92;1.40;;;;;;;21.47;34.01;101407.56;5034525;28;20061;-67
2023/08/09 18:15:21;;;;;;;2.47;1.40;;;;;;;21.46;33.61;101414.19;5020721;28;20056;-67
2023/08/09 18:17:49;;;;;;;3.20;1.50;;;;;;;21.44;33.65;101421.88;5024956;28;20049;-67
2023/08/09 18:20:17;;;;;;;4.22;1.70;;;;;;;21.42;33.41;101421.22;5024865;28;20057;-67